createdAt,value
2023-03-27T00:02:23.701Z,5.37
2023-03-27T00:04:50.759Z,10.23
2023-03-27T00:07:20.084Z,6.00
2023-03-27T00:09:47.070Z,6.55
2023-03-27T00:12:14.426Z,6.93
2023-03-27T00:14:41.576Z,9.50
2023-03-27T00:17:09.338Z,6.30
2023-03-27T00:19:36.574Z,5.83
2023-03-27T00:22:03.927Z,7.13
2023-03-27T00:24:31.065Z,5.83
2023-03-27T00:26:58.339Z,8.23
2023-03-27T00:29:25.248Z,6.63
2023-03-27T00:31:52.463Z,6.17
2023-03-27T00:34:19.535Z,4.63
2023-03-27T00:36:51.226Z,5.40
2023-03-27T00:39:19.306Z,6.23
2023-03-27T00:41:47.410Z,4.93
2023-03-27T00:44:27.046Z,6.53
2023-03-27T00:46:57.174Z,5.67
2023-03-27T00:49:28.851Z,5.70
2023-03-27T00:51:59.072Z,5.87
2023-03-27T00:54:30.202Z,3.27
2023-03-27T00:57:05.321Z,3.07
2023-03-27T00:59:36.750Z,5.93
2023-03-27T01:02:04.896Z,6.10
2023-03-27T01:04:33.833Z,3.50
2023-03-27T01:09:27.975Z,7.30
2023-03-27T01:12:07.271Z,6.03
2023-03-27T01:14:40.406Z,5.57
2023-03-27T01:17:16.872Z,5.90
2023-03-27T01:19:53.966Z,9.00
2023-03-27T01:22:55.555Z,4.97
2023-03-27T01:25:54.960Z,3.53
2023-03-27T01:28:43.880Z,4.13
2023-03-27T01:31:32.436Z,7.00
2023-03-27T01:34:02.480Z,3.55
2023-03-27T01:36:32.205Z,5.17
2023-03-27T01:39:05.516Z,5.63
2023-03-27T01:41:43.728Z,5.03
2023-03-27T01:44:25.289Z,6.78
2023-03-27T01:47:22.170Z,5.33
2023-03-27T01:52:29.429Z,6.40
2023-03-27T01:55:05.031Z,5.53
2023-03-27T01:57:49.188Z,8.00
2023-03-27T02:00:22.611Z,5.53
2023-03-27T02:03:02.450Z,4.73
2023-03-27T02:05:36.638Z,6.03
2023-03-27T02:08:21.424Z,7.80
2023-03-27T02:10:53.795Z,4.90
2023-03-27T02:13:30.580Z,6.33
2023-03-27T02:16:00.130Z,7.47
2023-03-27T02:18:36.025Z,6.27
2023-03-27T02:21:04.275Z,7.77
2023-03-27T02:23:31.137Z,7.37
2023-03-27T02:25:59.775Z,6.70
2023-03-27T02:28:49.256Z,6.15
2023-03-27T02:31:36.511Z,3.90
2023-03-27T02:34:15.462Z,5.97
2023-03-27T02:37:04.043Z,5.32
2023-03-27T02:39:52.289Z,4.07
2023-03-27T02:42:41.824Z,2.63
2023-03-27T02:45:16.797Z,4.70
2023-03-27T02:47:54.888Z,6.43
2023-03-27T02:50:38.300Z,8.33
2023-03-27T02:53:08.863Z,8.33
2023-03-27T02:55:40.415Z,7.40
2023-03-27T02:58:13.493Z,4.70
2023-03-27T03:00:48.891Z,6.00
2023-03-27T03:03:21.084Z,5.30
2023-03-27T03:05:48.194Z,5.97
2023-03-27T03:08:15.674Z,5.67
2023-03-27T03:10:44.962Z,5.50
2023-03-27T03:13:12.354Z,10.10
2023-03-27T03:15:39.362Z,7.23
2023-03-27T03:18:07.715Z,8.30
2023-03-27T03:20:35.522Z,7.20
2023-03-27T03:23:02.938Z,10.10
2023-03-27T03:25:31.398Z,6.73
2023-03-27T03:28:01.541Z,11.00
2023-03-27T03:30:30.461Z,6.17
2023-03-27T03:35:25.857Z,8.33
2023-03-27T03:37:53.210Z,9.17
2023-03-27T03:40:21.081Z,9.63
2023-03-27T03:42:50.549Z,9.93
2023-03-27T03:47:45.844Z,9.07
2023-03-27T03:50:13.318Z,7.43
2023-03-27T03:52:41.813Z,8.67
2023-03-27T03:55:12.050Z,7.80
2023-03-27T03:57:39.433Z,9.17
2023-03-27T04:00:08.849Z,11.60
2023-03-27T04:02:37.244Z,9.77
2023-03-27T04:05:08.441Z,5.60
2023-03-27T04:07:36.351Z,7.30
2023-03-27T04:10:04.141Z,10.03
2023-03-27T04:12:31.573Z,9.07
2023-03-27T04:14:58.523Z,8.80
2023-03-27T04:17:28.822Z,9.00
2023-03-27T04:19:55.788Z,8.00
2023-03-27T04:22:23.415Z,12.10
2023-03-27T04:24:50.732Z,9.60
2023-03-27T04:27:18.227Z,12.23
2023-03-27T04:29:47.496Z,9.90
2023-03-27T04:32:19.430Z,12.23
2023-03-27T04:34:47.278Z,10.38
2023-03-27T04:37:14.742Z,11.27
2023-03-27T04:39:46.339Z,14.00
2023-03-27T04:42:16.892Z,12.00
2023-03-27T04:44:46.565Z,16.03
2023-03-27T04:47:14.519Z,14.80
2023-03-27T04:49:43.771Z,13.27
2023-03-27T04:52:14.197Z,12.50
2023-03-27T04:54:42.140Z,13.23
2023-03-27T04:57:10.113Z,10.30
2023-03-27T04:59:37.705Z,15.23
2023-03-27T05:02:06.544Z,13.00
2023-03-27T05:04:33.691Z,13.32
2023-03-27T05:07:02.689Z,14.20
2023-03-27T05:09:29.579Z,18.40
2023-03-27T05:11:56.772Z,18.30
2023-03-27T05:14:24.009Z,16.97
2023-03-27T05:16:52.522Z,15.05
2023-03-27T05:19:20.241Z,15.70
2023-03-27T05:21:48.064Z,17.70
2023-03-27T05:24:15.929Z,17.67
2023-03-27T05:26:43.531Z,17.40
2023-03-27T05:29:10.604Z,18.93
2023-03-27T05:31:38.406Z,16.70
2023-03-27T05:34:05.929Z,13.35
2023-03-27T05:36:33.301Z,13.05
2023-03-27T05:39:00.128Z,14.13
2023-03-27T05:41:27.756Z,14.60
2023-03-27T05:43:54.631Z,16.85
2023-03-27T05:46:22.477Z,14.45
2023-03-27T05:48:49.648Z,8.93
2023-03-27T05:51:17.588Z,8.60
2023-03-27T05:53:44.515Z,14.18
2023-03-27T05:56:12.052Z,9.35
2023-03-27T05:58:39.009Z,10.95
2023-03-27T06:01:06.300Z,10.43
2023-03-27T06:03:36.715Z,16.33
2023-03-27T06:06:08.776Z,9.32
2023-03-27T06:08:36.738Z,10.93
2023-03-27T06:11:14.030Z,13.17
2023-03-27T06:13:41.596Z,13.00
2023-03-27T06:16:09.174Z,14.45
2023-03-27T06:18:36.666Z,16.33
2023-03-27T06:21:04.257Z,11.88
2023-03-27T06:23:32.038Z,10.45
2023-03-27T06:25:59.589Z,10.77
2023-03-27T06:28:26.553Z,11.77
2023-03-27T06:30:53.725Z,9.80
2023-03-27T06:33:20.688Z,9.55
2023-03-27T06:35:53.512Z,12.55
2023-03-27T06:38:21.276Z,14.18
2023-03-27T06:40:48.499Z,12.40
2023-03-27T06:43:19.036Z,13.27
2023-03-27T06:45:49.261Z,11.68
2023-03-27T06:48:20.566Z,10.35
2023-03-27T06:50:51.223Z,13.30
2023-03-27T06:53:27.309Z,13.80
2023-03-27T06:55:56.865Z,9.40
2023-03-27T06:58:24.454Z,11.13
2023-03-27T07:00:51.767Z,8.85
2023-03-27T07:03:21.741Z,12.18
2023-03-27T07:05:49.743Z,11.77
2023-03-27T07:08:24.452Z,12.02
2023-03-27T07:11:10.862Z,11.65
2023-03-27T07:13:41.254Z,16.00
2023-03-27T07:16:12.246Z,9.38
2023-03-27T07:18:39.693Z,10.73
2023-03-27T07:21:08.394Z,11.20
2023-03-27T07:23:35.869Z,12.48
2023-03-27T07:26:03.413Z,10.98
2023-03-27T07:28:30.624Z,14.00
2023-03-27T07:30:58.049Z,11.88
2023-03-27T07:33:25.323Z,13.98
2023-03-27T07:35:52.753Z,11.65
2023-03-27T07:38:20.023Z,14.52
2023-03-27T07:40:47.239Z,11.60
2023-03-27T07:43:14.369Z,11.23
2023-03-27T07:45:42.348Z,10.38
2023-03-27T07:48:12.021Z,9.32
2023-03-27T07:50:39.589Z,10.02
2023-03-27T07:53:06.780Z,18.20
2023-03-27T07:55:37.718Z,14.73
2023-03-27T07:58:06.993Z,20.23
2023-03-27T08:00:36.085Z,17.45
2023-03-27T08:03:08.235Z,17.55
2023-03-27T08:05:37.201Z,18.00
2023-03-27T08:08:05.132Z,16.27
2023-03-27T08:10:32.789Z,21.88
2023-03-27T08:12:59.750Z,18.85
2023-03-27T08:15:27.026Z,32.95
2023-03-27T08:17:55.408Z,23.67
2023-03-27T08:20:24.123Z,17.50
2023-03-27T08:22:52.865Z,14.68
2023-03-27T08:25:22.685Z,11.65
2023-03-27T08:27:50.748Z,15.85
2023-03-27T08:30:19.188Z,12.63
2023-03-27T08:32:46.451Z,9.20
2023-03-27T08:35:13.750Z,9.85
2023-03-27T08:37:41.671Z,13.20
2023-03-27T08:40:19.734Z,10.57
2023-03-27T08:42:52.847Z,8.38
2023-03-27T08:45:48.195Z,9.77
2023-03-27T08:48:22.194Z,10.55
2023-03-27T08:50:54.793Z,18.30
2023-03-27T08:53:30.919Z,42.45
2023-03-27T08:55:58.642Z,18.00
2023-03-27T08:58:26.857Z,12.15
2023-03-27T09:01:01.288Z,9.40
2023-03-27T09:03:35.861Z,16.17
2023-03-27T09:06:11.647Z,46.35
2023-03-27T09:09:22.096Z,25.95
2023-03-27T09:12:06.786Z,16.98
2023-03-27T09:14:38.770Z,22.67
2023-03-27T09:17:19.044Z,20.48
2023-03-27T09:20:10.795Z,23.30
2023-03-27T09:22:44.291Z,23.60
2023-03-27T09:25:19.279Z,23.73
2023-03-27T09:27:48.621Z,17.25
2023-03-27T09:30:22.622Z,15.65
2023-03-27T09:32:54.170Z,16.42
2023-03-27T09:35:22.386Z,20.98
2023-03-27T09:37:59.101Z,22.23
2023-03-27T09:40:33.963Z,18.15
2023-03-27T09:43:08.631Z,19.25
2023-03-27T09:45:39.297Z,27.63
2023-03-27T09:48:14.567Z,41.90
2023-03-27T09:50:47.550Z,20.60
2023-03-27T09:53:21.668Z,30.42
2023-03-27T09:55:53.053Z,22.10
2023-03-27T09:58:30.083Z,23.63
2023-03-27T10:01:16.982Z,17.70
2023-03-27T10:03:53.235Z,15.23
2023-03-27T10:06:45.112Z,13.75
2023-03-27T10:09:27.898Z,15.27
2023-03-27T10:12:08.315Z,14.38
2023-03-27T10:14:45.124Z,15.55
2023-03-27T10:17:36.862Z,14.63
2023-03-27T10:20:11.248Z,11.65
2023-03-27T10:22:52.589Z,9.38
2023-03-27T10:25:29.657Z,8.63
2023-03-27T10:28:24.027Z,8.23
2023-03-27T10:31:00.209Z,9.70
2023-03-27T10:33:38.262Z,21.88
2023-03-27T10:36:08.564Z,28.83
2023-03-27T10:38:38.228Z,18.25
2023-03-27T10:41:15.585Z,17.45
2023-03-27T10:43:57.529Z,11.55
2023-03-27T10:49:31.777Z,6.55
2023-03-27T10:51:58.939Z,12.23
2023-03-27T10:54:54.638Z,17.13
2023-03-27T10:57:29.132Z,18.52
2023-03-27T11:00:11.834Z,9.52
2023-03-27T11:02:48.269Z,14.82
2023-03-27T11:05:21.381Z,9.00
2023-03-27T11:08:16.218Z,8.65
2023-03-27T11:10:48.241Z,8.18
2023-03-27T11:13:17.562Z,5.95
2023-03-27T11:15:54.281Z,7.78
2023-03-27T11:18:30.053Z,6.55
2023-03-27T11:21:01.673Z,7.90
2023-03-27T11:23:48.487Z,24.98
2023-03-27T11:26:17.034Z,18.35
2023-03-27T11:28:48.689Z,11.73
2023-03-27T11:31:48.532Z,13.32
2023-03-27T11:34:42.774Z,11.63
2023-03-27T11:37:21.846Z,12.73
2023-03-27T11:39:56.123Z,6.93
2023-03-27T11:42:27.168Z,10.00
2023-03-27T11:44:55.290Z,8.48
2023-03-27T11:47:48.739Z,8.43
2023-03-27T11:50:37.532Z,11.70
2023-03-27T11:53:19.303Z,12.75
2023-03-27T11:56:22.585Z,6.80
2023-03-27T11:59:22.520Z,4.47
2023-03-27T12:02:02.201Z,8.80
2023-03-27T12:04:48.555Z,6.15
2023-03-27T12:07:40.432Z,4.97
2023-03-27T12:10:11.627Z,6.50
2023-03-27T12:13:00.849Z,4.15
2023-03-27T12:15:36.873Z,8.75
2023-03-27T12:18:16.208Z,13.88
2023-03-27T12:20:55.004Z,16.35
2023-03-27T12:23:45.945Z,16.48
2023-03-27T12:26:18.854Z,11.25
2023-03-27T12:29:23.091Z,7.07
2023-03-27T12:31:57.038Z,13.10
2023-03-27T12:34:50.342Z,30.35
2023-03-27T12:37:22.272Z,76.78
2023-03-27T12:39:54.385Z,14.52
2023-03-27T12:42:44.021Z,49.28
2023-03-27T12:45:22.569Z,60.17
2023-03-27T12:48:11.029Z,12.57
2023-03-27T12:50:44.371Z,109.45
2023-03-27T12:53:26.909Z,9.50
2023-03-27T12:56:30.244Z,38.45
2023-03-27T12:58:57.763Z,24.20
2023-03-27T13:01:59.674Z,28.75
2023-03-27T13:05:08.624Z,12.00
2023-03-27T13:07:58.391Z,14.75
2023-03-27T13:10:40.737Z,22.95
2023-03-27T13:13:26.111Z,42.87
2023-03-27T13:15:53.118Z,12.80
2023-03-27T13:18:51.709Z,249.60
2023-03-27T13:21:40.841Z,16.25
2023-03-27T13:24:10.757Z,135.75
2023-03-27T13:26:52.726Z,126.10
2023-03-27T13:29:31.993Z,194.02
2023-03-27T13:32:00.731Z,114.20
2023-03-27T13:34:37.162Z,150.40
2023-03-27T13:37:11.275Z,309.48
2023-03-27T13:39:41.605Z,332.17
2023-03-27T13:42:21.318Z,421.23
2023-03-27T13:45:04.100Z,357.17
2023-03-27T13:47:33.762Z,137.25
2023-03-27T13:50:41.675Z,50.95
2023-03-27T13:53:26.524Z,122.35
2023-03-27T13:56:18.367Z,138.87
2023-03-27T13:59:03.270Z,101.73
2023-03-27T14:01:42.214Z,42.27
2023-03-27T14:04:34.148Z,73.57
2023-03-27T14:07:26.779Z,112.43
2023-03-27T14:10:31.228Z,129.20
2023-03-27T14:13:03.549Z,71.37
2023-03-27T14:15:57.605Z,301.10
2023-03-27T14:18:30.897Z,824.23
2023-03-27T14:21:02.263Z,397.70
2023-03-27T14:23:56.204Z,77.70
2023-03-27T14:26:25.644Z,75.90
2023-03-27T14:28:59.194Z,15.80
2023-03-27T14:31:28.913Z,10.23
2023-03-27T14:34:08.239Z,14.60
2023-03-27T14:36:42.429Z,19.00
2023-03-27T14:39:16.513Z,52.20
2023-03-27T14:41:56.989Z,58.63
2023-03-27T14:44:26.095Z,43.20
2023-03-27T14:47:15.366Z,226.23
2023-03-27T14:49:47.519Z,409.30
2023-03-27T14:52:30.833Z,203.10
2023-03-27T14:54:59.553Z,312.60
2023-03-27T14:57:28.364Z,78.25
2023-03-27T14:59:56.687Z,411.65
2023-03-27T15:02:30.575Z,143.50
2023-03-27T15:05:04.886Z,332.37
2023-03-27T15:07:36.180Z,89.13
2023-03-27T15:10:06.492Z,74.23
2023-03-27T15:12:37.077Z,40.60
2023-03-27T15:15:21.864Z,30.37
2023-03-27T15:17:50.794Z,48.63
2023-03-27T15:23:01.477Z,34.83
2023-03-27T15:25:44.678Z,46.90
2023-03-27T15:28:29.667Z,101.27
2023-03-27T15:31:00.950Z,60.50
2023-03-27T15:33:37.537Z,22.83
2023-03-27T15:36:11.143Z,81.93
2023-03-27T15:38:39.717Z,211.60
2023-03-27T15:41:09.945Z,308.42
2023-03-27T15:43:36.814Z,222.23
2023-03-27T15:46:19.208Z,117.13
2023-03-27T15:48:50.937Z,43.43
2023-03-27T15:51:21.212Z,226.03
2023-03-27T15:53:51.021Z,133.73
2023-03-27T15:56:26.350Z,231.17
2023-03-27T15:59:04.518Z,282.83
2023-03-27T16:02:03.827Z,93.22
2023-03-27T16:04:55.832Z,133.07
2023-03-27T16:07:25.384Z,333.13
2023-03-27T16:12:31.794Z,168.77
2023-03-27T16:15:00.910Z,142.90
2023-03-27T16:17:37.653Z,154.10
2023-03-27T16:20:12.102Z,57.03
2023-03-27T16:22:40.115Z,43.83
2023-03-27T16:25:11.911Z,70.53
2023-03-27T16:27:48.425Z,263.80
2023-03-27T16:30:27.776Z,62.37
2023-03-27T16:32:55.950Z,33.37
2023-03-27T16:35:23.065Z,29.13
2023-03-27T16:37:50.380Z,36.13
2023-03-27T16:40:17.420Z,68.43
2023-03-27T16:42:44.628Z,35.00
2023-03-27T16:45:11.712Z,168.07
2023-03-27T16:47:41.537Z,97.30
2023-03-27T16:50:17.738Z,42.57
2023-03-27T16:52:44.953Z,34.10
2023-03-27T16:55:14.003Z,26.83
2023-03-27T16:57:42.305Z,38.70
2023-03-27T17:00:11.058Z,60.73
2023-03-27T17:05:08.208Z,35.60
2023-03-27T17:07:36.122Z,65.63
2023-03-27T17:10:04.504Z,52.50
2023-03-27T17:12:32.382Z,36.20
2023-03-27T17:14:59.373Z,29.97
2023-03-27T17:17:27.809Z,29.07
2023-03-27T17:19:54.775Z,40.08
2023-03-27T17:22:21.889Z,47.20
2023-03-27T17:24:56.131Z,40.73
2023-03-27T17:27:26.788Z,55.57
2023-03-27T17:29:56.161Z,35.23
2023-03-27T17:32:27.100Z,42.07
2023-03-27T17:34:54.221Z,40.50
2023-03-27T17:37:22.364Z,27.50
2023-03-27T17:39:49.473Z,30.93
2023-03-27T17:42:18.257Z,30.90
2023-03-27T17:44:45.569Z,37.63
2023-03-27T17:47:13.460Z,36.00
2023-03-27T17:49:41.165Z,34.67
2023-03-27T17:52:11.399Z,27.10
2023-03-27T17:54:38.992Z,24.73
2023-03-27T17:57:06.415Z,24.37
2023-03-27T17:59:33.738Z,27.33
2023-03-27T18:02:01.849Z,36.30
2023-03-27T18:04:29.678Z,24.47
2023-03-27T18:06:57.079Z,25.63
2023-03-27T18:09:25.086Z,25.43
2023-03-27T18:11:52.340Z,23.75
2023-03-27T18:14:19.227Z,25.67
2023-03-27T18:16:46.411Z,28.17
2023-03-27T18:19:14.616Z,25.57
2023-03-27T18:21:42.485Z,23.50
2023-03-27T18:24:09.548Z,30.17
2023-03-27T18:26:36.958Z,29.03
2023-03-27T18:29:05.055Z,28.60
2023-03-27T18:31:32.522Z,25.83
2023-03-27T18:33:59.457Z,28.03
2023-03-27T18:36:27.380Z,33.23
2023-03-27T18:38:54.270Z,30.47
2023-03-27T18:41:21.400Z,30.63
2023-03-27T18:43:48.257Z,29.50
2023-03-27T18:46:17.259Z,26.47
2023-03-27T18:48:46.003Z,24.38
2023-03-27T18:51:13.388Z,26.40
2023-03-27T18:53:40.842Z,21.97
2023-03-27T18:56:08.282Z,24.37
2023-03-27T18:58:36.013Z,22.23
2023-03-27T19:01:09.153Z,22.87
2023-03-27T19:03:37.195Z,18.50
2023-03-27T19:06:06.501Z,19.27
2023-03-27T19:08:37.580Z,22.83
2023-03-27T19:11:06.231Z,24.53
2023-03-27T19:13:33.289Z,17.52
2023-03-27T19:16:00.911Z,19.43
2023-03-27T19:18:30.286Z,16.37
2023-03-27T19:21:00.910Z,18.60
2023-03-27T19:23:28.508Z,17.97
2023-03-27T19:25:56.274Z,18.13
2023-03-27T19:28:23.236Z,16.20
2023-03-27T19:30:52.933Z,16.50
2023-03-27T19:33:20.075Z,12.67
2023-03-27T19:35:51.810Z,10.73
2023-03-27T19:38:18.824Z,13.67
2023-03-27T19:40:46.028Z,13.23
2023-03-27T19:43:13.866Z,11.97
2023-03-27T19:45:47.155Z,14.68
2023-03-27T19:48:14.104Z,11.77
2023-03-27T19:50:41.497Z,10.93
2023-03-27T19:53:09.203Z,14.23
2023-03-27T19:55:37.529Z,13.95
2023-03-27T19:58:04.414Z,9.20
2023-03-27T20:00:32.300Z,12.80
2023-03-27T20:02:59.687Z,11.73
2023-03-27T20:05:27.749Z,12.93
2023-03-27T20:07:54.647Z,15.27
2023-03-27T20:10:22.547Z,13.50
2023-03-27T20:12:49.553Z,12.90
2023-03-27T20:15:16.956Z,13.57
2023-03-27T20:17:43.945Z,12.57
2023-03-27T20:20:11.707Z,16.17
2023-03-27T20:22:50.105Z,12.53
2023-03-27T20:25:24.463Z,14.60
2023-03-27T20:27:51.427Z,15.83
2023-03-27T20:30:18.816Z,16.30
2023-03-27T20:32:45.887Z,15.77
2023-03-27T20:35:23.564Z,15.53
2023-03-27T20:37:57.828Z,13.05
2023-03-27T20:40:26.261Z,14.07
2023-03-27T20:43:03.619Z,18.30
2023-03-27T20:45:31.428Z,17.90
2023-03-27T20:48:03.967Z,16.70
2023-03-27T20:50:35.288Z,13.23
2023-03-27T20:53:04.527Z,12.70
2023-03-27T20:55:34.828Z,14.97
2023-03-27T20:58:06.715Z,17.27
2023-03-27T21:00:34.714Z,14.23
2023-03-27T21:03:02.045Z,14.57
2023-03-27T21:05:29.341Z,17.33
2023-03-27T21:07:56.575Z,14.47
2023-03-27T21:10:25.020Z,15.40
2023-03-27T21:12:53.739Z,13.95
2023-03-27T21:15:20.882Z,12.07
2023-03-27T21:17:47.823Z,13.93
2023-03-27T21:20:15.668Z,14.20
2023-03-27T21:22:42.626Z,14.47
2023-03-27T21:25:09.946Z,16.87
2023-03-27T21:27:37.510Z,16.07
2023-03-27T21:30:05.889Z,16.37
2023-03-27T21:32:32.832Z,15.83
2023-03-27T21:35:00.030Z,16.93
2023-03-27T21:37:26.891Z,16.00
2023-03-27T21:39:54.086Z,17.27
2023-03-27T21:42:21.925Z,16.77
2023-03-27T21:44:53.657Z,17.03
2023-03-27T21:47:22.756Z,16.77
2023-03-27T21:49:49.961Z,16.70
2023-03-27T21:52:16.881Z,18.97
2023-03-27T21:54:53.155Z,17.77
2023-03-27T21:57:29.251Z,20.47
2023-03-27T21:59:56.503Z,17.43
2023-03-27T22:02:23.359Z,17.73
2023-03-27T22:04:50.737Z,15.20
2023-03-27T22:07:17.652Z,16.73
2023-03-27T22:09:45.396Z,14.97
2023-03-27T22:12:13.107Z,13.30
2023-03-27T22:14:40.501Z,14.83
2023-03-27T22:17:07.682Z,14.53
2023-03-27T22:19:34.998Z,12.70
2023-03-27T22:22:02.353Z,16.00
2023-03-27T22:24:29.611Z,14.90
2023-03-27T22:26:57.103Z,28.00
2023-03-27T22:29:24.396Z,28.73
2023-03-27T22:31:51.884Z,20.57
2023-03-27T22:34:18.993Z,24.60
2023-03-27T22:36:45.936Z,25.03
2023-03-27T22:39:13.117Z,17.23
2023-03-27T22:41:40.100Z,23.00
2023-03-27T22:44:07.295Z,18.53
2023-03-27T22:46:34.429Z,17.13
2023-03-27T22:49:01.640Z,18.23
2023-03-27T22:51:30.373Z,18.83
2023-03-27T22:56:24.771Z,17.67
2023-03-27T22:58:51.966Z,17.50
2023-03-27T23:01:18.919Z,21.43
2023-03-27T23:03:46.296Z,18.03
2023-03-27T23:06:18.999Z,19.27
2023-03-27T23:08:48.571Z,17.37
2023-03-27T23:11:16.235Z,18.70
2023-03-27T23:13:43.949Z,16.10
2023-03-27T23:16:11.423Z,16.93
2023-03-27T23:18:39.013Z,16.57
2023-03-27T23:21:12.081Z,14.63
2023-03-27T23:23:40.581Z,15.77
2023-03-27T23:26:08.264Z,15.68
2023-03-27T23:28:38.635Z,15.27
2023-03-27T23:31:20.240Z,15.33
2023-03-27T23:33:50.798Z,12.43
2023-03-27T23:36:23.372Z,11.20
2023-03-27T23:38:51.777Z,9.83
2023-03-27T23:41:19.299Z,9.63
2023-03-27T23:43:46.697Z,7.77
2023-03-27T23:46:14.197Z,7.83
2023-03-27T23:48:43.028Z,9.20
2023-03-27T23:51:11.470Z,7.03
2023-03-27T23:53:38.669Z,9.82
2023-03-27T23:56:05.877Z,7.30
2023-03-27T23:58:33.371Z,6.63
